Time;durP1;ratioP1;P1;durP2;ratioP2;P2;SDS_P1;SDS_P2;PMS_P1;PMS_P2;Temp;Humidity;BMP_temperature;BMP_pressure;BME280_temperature;BME280_humidity;BME280_pressure;Samples;Min_cycle;Max_cycle;Signal;HPM_P1;HPM_P2
2023/04/25 00:01:13;;;;;;;21.40;8.90;;;5.10;99.90;;;;;;5059325;28;20556;-72
2023/04/25 00:03:39;;;;;;;20.20;8.15;;;5.10;99.90;;;;;;5077539;28;20105;-70
2023/04/25 00:06:06;;;;;;;17.75;8.05;;;5.10;99.90;;;;;;5079786;28;20051;-70
2023/04/25 00:08:32;;;;;;;22.27;8.95;;;5.10;99.90;;;;;;5079291;28;20044;-70
2023/04/25 00:10:58;;;;;;;27.30;8.48;;;5.00;99.90;;;;;;5060845;28;20510;-70
2023/04/25 00:13:25;;;;;;;18.38;8.32;;;5.00;99.90;;;;;;5078203;28;20205;-71
2023/04/25 00:15:52;;;;;;;19.08;7.97;;;4.90;99.90;;;;;;5078794;28;20075;-69
2023/04/25 00:18:19;;;;;;;24.05;8.90;;;4.90;99.90;;;;;;5049331;28;20045;-71
2023/04/25 00:20:46;;;;;;;20.77;9.20;;;4.80;99.90;;;;;;5060786;28;20070;-71
2023/04/25 00:23:17;;;;;;;25.42;9.80;;;4.80;99.90;;;;;;5063514;28;20147;-69
2023/04/25 00:25:44;;;;;;;22.83;8.88;;;4.80;99.90;;;;;;5064807;28;20040;-70
2023/04/25 00:28:11;;;;;;;21.67;10.05;;;4.80;99.90;;;;;;5062085;28;20075;-69
2023/04/25 00:30:36;;;;;;;21.65;9.68;;;4.80;99.90;;;;;;5063227;28;20044;-71
2023/04/25 00:33:02;;;;;;;20.15;8.77;;;4.90;99.90;;;;;;5066618;28;20573;-71
2023/04/25 00:35:28;;;;;;;25.98;9.48;;;4.90;99.90;;;;;;5062650;28;20544;-70
2023/04/25 00:37:54;;;;;;;23.52;10.13;;;4.90;99.90;;;;;;5072960;28;20532;-71
2023/04/25 00:40:20;;;;;;;19.40;9.23;;;4.90;99.90;;;;;;5052950;28;20040;-71
2023/04/25 00:42:47;;;;;;;27.52;11.38;;;4.90;99.90;;;;;;5062847;28;20119;-70
2023/04/25 00:45:14;;;;;;;19.85;9.25;;;4.80;99.90;;;;;;5065621;28;20047;-72
2023/04/25 00:47:41;;;;;;;21.73;9.13;;;4.80;99.90;;;;;;5065394;28;20087;-70
2023/04/25 00:50:08;;;;;;;18.75;8.20;;;4.80;99.90;;;;;;5065761;28;20037;-69
2023/04/25 00:52:34;;;;;;;24.23;8.13;;;4.80;99.90;;;;;;5062993;28;20166;-69
2023/04/25 00:55:00;;;;;;;21.42;7.65;;;4.70;99.90;;;;;;5067121;28;20234;-68
2023/04/25 00:57:26;;;;;;;16.70;7.35;;;4.70;99.90;;;;;;5063275;28;20531;-69
2023/04/25 00:59:53;;;;;;;22.42;7.80;;;4.60;99.90;;;;;;5065069;28;20047;-70
2023/04/25 01:02:20;;;;;;;22.17;8.60;;;4.60;99.90;;;;;;5062975;28;20524;-68
2023/04/25 01:04:47;;;;;;;22.90;8.00;;;4.60;99.90;;;;;;5064609;28;20048;-70
2023/04/25 01:07:13;;;;;;;22.42;9.02;;;4.60;99.90;;;;;;5062044;28;20133;-70
2023/04/25 01:09:39;;;;;;;18.90;7.85;;;4.50;99.90;;;;;;5065179;28;20036;-70
2023/04/25 01:12:05;;;;;;;20.42;7.50;;;4.50;99.90;;;;;;5063019;28;20060;-70
2023/04/25 01:14:31;;;;;;;21.20;7.65;;;4.50;99.90;;;;;;5060164;28;20605;-70
2023/04/25 01:16:57;;;;;;;13.07;6.45;;;4.40;99.90;;;;;;5064845;28;20903;-70
2023/04/25 01:19:23;;;;;;;23.92;8.52;;;4.40;99.90;;;;;;5065322;28;20041;-70
2023/04/25 01:21:50;;;;;;;25.55;7.15;;;4.40;99.90;;;;;;5062246;28;20094;-70
2023/04/25 01:24:16;;;;;;;14.25;6.60;;;4.40;99.90;;;;;;5063943;28;20048;-71
2023/04/25 01:26:49;;;;;;;18.65;6.93;;;4.50;99.90;;;;;;5063552;28;20119;-70
2023/04/25 01:29:19;;;;;;;18.75;6.18;;;4.50;99.90;;;;;;5061958;28;20040;-69
2023/04/25 01:31:45;;;;;;;18.92;5.60;;;4.60;99.90;;;;;;5063640;28;20028;-68
2023/04/25 01:34:12;;;;;;;12.82;5.22;;;4.60;99.90;;;;;;5063883;28;20117;-71
2023/04/25 01:36:38;;;;;;;13.45;6.32;;;4.50;99.90;;;;;;5063665;28;20060;-70
2023/04/25 01:39:04;;;;;;;19.35;5.47;;;4.50;99.90;;;;;;5062395;28;20037;-70
2023/04/25 01:41:30;;;;;;;16.13;5.15;;;4.50;99.90;;;;;;5061070;28;20139;-68
2023/04/25 01:43:55;;;;;;;15.23;5.85;;;4.50;99.90;;;;;;5061909;28;20135;-68
2023/04/25 01:46:21;;;;;;;16.02;5.85;;;4.50;99.90;;;;;;5063497;28;20206;-70
2023/04/25 01:48:47;;;;;;;15.50;5.97;;;4.50;99.90;;;;;;5062039;28;20044;-71
2023/04/25 01:51:13;;;;;;;14.45;4.72;;;4.50;99.90;;;;;;5061307;28;20036;-69
2023/04/25 01:53:39;;;;;;;13.45;5.80;;;4.60;99.90;;;;;;5045974;28;20065;-69
2023/04/25 01:56:05;;;;;;;12.90;4.95;;;4.60;99.90;;;;;;5058170;28;20048;-70
2023/04/25 01:58:31;;;;;;;12.77;5.55;;;4.60;99.90;;;;;;5059071;28;20048;-70
2023/04/25 02:00:57;;;;;;;12.70;5.50;;;4.60;99.90;;;;;;5062072;28;20374;-70
2023/04/25 02:03:22;;;;;;;14.23;5.30;;;4.70;99.90;;;;;;5063687;28;20052;-70
2023/04/25 02:05:48;;;;;;;15.10;5.03;;;4.60;99.90;;;;;;5066433;28;20041;-70
2023/04/25 02:08:13;;;;;;;;;;;4.60;99.90;;;;;;5067157;28;20128;-70
2023/04/25 02:10:39;;;;;;;12.70;5.45;;;4.60;99.90;;;;;;5069036;28;20030;-70
2023/04/25 02:13:05;;;;;;;16.08;4.80;;;4.60;99.90;;;;;;5067333;28;20512;-70
2023/04/25 02:15:31;;;;;;;12.60;4.70;;;4.50;99.90;;;;;;5066977;28;20036;-70
2023/04/25 02:17:57;;;;;;;9.10;4.30;;;4.50;99.90;;;;;;5067143;28;20036;-69
2023/04/25 02:20:24;;;;;;;11.25;4.85;;;4.60;99.90;;;;;;5064546;28;20048;-69
2023/04/25 02:22:51;;;;;;;12.18;5.15;;;4.50;99.90;;;;;;5064971;28;20094;-70
2023/04/25 02:25:19;;;;;;;9.88;5.30;;;4.50;99.90;;;;;;5063813;28;20044;-70
2023/04/25 02:27:46;;;;;;;11.82;5.32;;;4.60;99.90;;;;;;5064064;28;20484;-69
2023/04/25 02:30:12;;;;;;;12.75;5.07;;;4.50;99.90;;;;;;5086730;28;20028;-70
2023/04/25 02:32:38;;;;;;;9.35;4.60;;;4.50;99.90;;;;;;5053719;28;20045;-70
2023/04/25 02:35:05;;;;;;;13.65;6.05;;;4.50;99.90;;;;;;5060755;28;20404;-70
2023/04/25 02:37:31;;;;;;;13.27;5.30;;;4.50;99.90;;;;;;5063038;28;20055;-70
2023/04/25 02:39:56;;;;;;;14.43;5.15;;;4.50;99.90;;;;;;5064431;28;20919;-70
2023/04/25 02:42:22;;;;;;;18.98;5.88;;;4.60;99.90;;;;;;5061249;28;20078;-69
2023/04/25 02:44:48;;;;;;;;;;;4.60;99.90;;;;;;5064654;28;20064;-70
2023/04/25 02:47:14;;;;;;;11.90;6.00;;;4.50;99.90;;;;;;5064596;28;19931;-70
2023/04/25 02:49:40;;;;;;;13.07;6.25;;;4.50;99.90;;;;;;5063839;28;20515;-70
2023/04/25 02:52:06;;;;;;;10.57;6.43;;;4.40;99.90;;;;;;5060996;28;20862;-70
2023/04/25 02:54:31;;;;;;;13.45;6.00;;;4.40;99.90;;;;;;5062503;28;20041;-70
2023/04/25 02:56:57;;;;;;;11.32;5.82;;;4.40;99.90;;;;;;5062583;28;20047;-70
2023/04/25 02:59:22;;;;;;;13.27;5.72;;;4.40;99.90;;;;;;5063983;28;20036;-70
2023/04/25 03:01:48;;;;;;;12.23;6.25;;;4.50;99.90;;;;;;5060277;28;20032;-69
2023/04/25 03:04:14;;;;;;;13.20;6.43;;;4.50;99.90;;;;;;5063404;28;20102;-70
2023/04/25 03:06:39;;;;;;;9.13;6.00;;;4.60;99.90;;;;;;5064212;28;20044;-69
2023/04/25 03:09:05;;;;;;;17.83;6.40;;;4.60;99.90;;;;;;5063940;28;20033;-69
2023/04/25 03:11:30;;;;;;;14.70;7.15;;;4.70;99.90;;;;;;5061383;28;20044;-69
2023/04/25 03:13:56;;;;;;;15.35;6.80;;;4.70;99.90;;;;;;5064215;28;20032;-68
2023/04/25 03:16:22;;;;;;;17.80;7.18;;;4.70;99.90;;;;;;5068913;28;20044;-69
2023/04/25 03:18:49;;;;;;;13.50;6.20;;;4.60;99.90;;;;;;5077309;28;20044;-69
2023/04/25 03:21:15;;;;;;;11.63;6.40;;;4.60;99.90;;;;;;5062312;28;20048;-70
2023/04/25 03:23:40;;;;;;;19.52;6.93;;;4.70;99.90;;;;;;5061915;28;20117;-70
2023/04/25 03:26:06;;;;;;;15.90;6.75;;;4.70;99.90;;;;;;5063140;28;20048;-69
2023/04/25 03:28:31;;;;;;;10.65;5.78;;;4.60;99.90;;;;;;5062587;28;20032;-70
2023/04/25 03:30:57;;;;;;;14.63;7.07;;;4.70;99.90;;;;;;5060232;28;20032;-69
2023/04/25 03:33:23;;;;;;;8.32;5.00;;;4.60;99.90;;;;;;5060983;28;20051;-69
2023/04/25 03:35:49;;;;;;;12.80;7.03;;;4.60;99.90;;;;;;5075380;28;20040;-70
2023/04/25 03:38:15;;;;;;;9.82;5.28;;;4.60;99.90;;;;;;5083074;28;20044;-70
2023/04/25 03:40:41;;;;;;;11.20;5.38;;;4.50;99.90;;;;;;5062234;28;20036;-70
2023/04/25 03:43:07;;;;;;;8.00;4.97;;;4.60;99.90;;;;;;5059611;28;20170;-67
2023/04/25 03:45:32;;;;;;;14.40;5.43;;;4.50;99.90;;;;;;5062810;28;20562;-70
2023/04/25 03:47:58;;;;;;;7.93;4.70;;;4.50;99.90;;;;;;5062016;28;20974;-71
2023/04/25 03:50:23;;;;;;;;;;;4.50;99.90;;;;;;5062421;28;20093;-68
2023/04/25 03:52:49;;;;;;;7.78;4.43;;;4.50;99.90;;;;;;5061042;28;20013;-70
2023/04/25 03:55:15;;;;;;;6.90;3.97;;;4.50;99.90;;;;;;5065607;28;20044;-69
2023/04/25 03:57:41;;;;;;;6.95;3.72;;;4.50;99.90;;;;;;5066667;28;20445;-70
2023/04/25 04:00:07;;;;;;;6.70;4.20;;;4.50;99.90;;;;;;5065325;28;20043;-68
2023/04/25 04:02:34;;;;;;;9.30;3.95;;;4.50;99.90;;;;;;5059987;28;20045;-70
2023/04/25 04:05:00;;;;;;;6.70;3.50;;;4.60;99.90;;;;;;5065500;28;20040;-68
2023/04/25 04:07:26;;;;;;;5.55;3.47;;;4.60;99.90;;;;;;5063680;28;20048;-69
2023/04/25 04:09:52;;;;;;;5.18;3.30;;;4.60;99.90;;;;;;5064898;28;20472;-69
2023/04/25 04:12:17;;;;;;;;;;;4.60;99.90;;;;;;5064404;28;20048;-68
2023/04/25 04:14:43;;;;;;;5.00;2.95;;;4.60;99.90;;;;;;5067009;28;20586;-69
2023/04/25 04:17:09;;;;;;;4.18;3.17;;;4.50;99.90;;;;;;5064711;28;20397;-69
2023/04/25 04:19:35;;;;;;;7.10;2.50;;;4.50;99.90;;;;;;5066598;28;20040;-69
2023/04/25 04:22:00;;;;;;;3.40;2.60;;;4.50;99.90;;;;;;5063896;28;20040;-69
2023/04/25 04:24:26;;;;;;;3.10;2.08;;;4.50;99.90;;;;;;5066276;28;20044;-70
2023/04/25 04:26:52;;;;;;;3.15;2.20;;;4.60;99.90;;;;;;5063225;28;20047;-70
2023/04/25 04:29:20;;;;;;;3.35;2.30;;;4.60;99.90;;;;;;5065789;28;20028;-69
2023/04/25 04:31:50;;;;;;;2.20;1.90;;;4.60;99.90;;;;;;5064480;28;20508;-69
2023/04/25 04:34:17;;;;;;;5.25;1.90;;;4.60;99.90;;;;;;5062978;28;20037;-71
2023/04/25 04:36:45;;;;;;;5.90;2.05;;;4.60;99.90;;;;;;5064441;28;20036;-68
2023/04/25 04:39:12;;;;;;;2.47;1.73;;;4.60;99.90;;;;;;5066321;28;20404;-69
2023/04/25 04:41:38;;;;;;;2.33;1.70;;;4.60;99.90;;;;;;5063175;28;20047;-70
2023/04/25 04:44:04;;;;;;;2.45;1.55;;;4.50;99.90;;;;;;5081086;28;20041;-68
2023/04/25 04:46:37;;;;;;;1.60;1.27;;;4.50;99.90;;;;;;5065734;28;20080;-69
2023/04/25 04:49:06;;;;;;;1.92;1.60;;;4.50;99.90;;;;;;5063889;28;20076;-70
2023/04/25 04:51:32;;;;;;;3.25;1.30;;;4.50;99.90;;;;;;5071583;28;20074;-69
2023/04/25 04:54:02;;;;;;;3.22;1.80;;;4.50;99.90;;;;;;5065058;28;20060;-69
2023/04/25 04:56:29;;;;;;;3.90;1.50;;;4.50;99.90;;;;;;5058204;28;20052;-68
2023/04/25 04:58:55;;;;;;;2.30;1.50;;;4.50;99.90;;;;;;5068095;28;20547;-70
2023/04/25 05:01:21;;;;;;;2.08;1.40;;;4.50;99.90;;;;;;5060096;28;20071;-68
2023/04/25 05:03:47;;;;;;;2.00;1.52;;;4.50;99.90;;;;;;5065719;28;20064;-71
2023/04/25 05:06:13;;;;;;;4.50;1.30;;;4.50;99.90;;;;;;5061361;28;20547;-68
2023/04/25 05:08:38;;;;;;;1.83;1.23;;;4.50;99.90;;;;;;5063934;28;20039;-68
2023/04/25 05:11:04;;;;;;;2.63;1.40;;;4.50;99.90;;;;;;5060310;28;20048;-69
2023/04/25 05:13:30;;;;;;;6.07;2.13;;;4.40;99.90;;;;;;5064545;28;20567;-69
2023/04/25 05:15:55;;;;;;;7.50;2.65;;;4.40;99.90;;;;;;5065673;28;20109;-71
2023/04/25 05:18:21;;;;;;;5.30;2.05;;;4.40;99.90;;;;;;5065457;28;20792;-70
2023/04/25 05:20:46;;;;;;;8.32;2.88;;;4.50;99.90;;;;;;5065330;28;20036;-71
2023/04/25 05:23:12;;;;;;;5.40;2.53;;;4.50;99.90;;;;;;5065736;28;20064;-71
2023/04/25 05:25:38;;;;;;;7.28;2.97;;;4.40;99.90;;;;;;5079901;28;20391;-70
2023/04/25 05:28:04;;;;;;;7.05;3.45;;;4.50;99.90;;;;;;5066021;28;20036;-72
2023/04/25 05:30:30;;;;;;;11.18;3.08;;;4.60;99.90;;;;;;5060072;28;20036;-71
2023/04/25 05:32:55;;;;;;;10.85;3.58;;;4.50;99.90;;;;;;5068725;28;20518;-70
2023/04/25 05:35:21;;;;;;;8.88;4.18;;;4.50;99.90;;;;;;5059715;28;20041;-71
2023/04/25 05:37:47;;;;;;;6.68;3.58;;;4.60;99.90;;;;;;5059217;28;20127;-71
2023/04/25 05:40:12;;;;;;;15.35;4.35;;;4.60;99.90;;;;;;5061311;28;20037;-71
2023/04/25 05:42:38;;;;;;;24.02;6.22;;;4.60;99.90;;;;;;5059087;28;20045;-70
2023/04/25 05:45:04;;;;;;;13.25;4.32;;;4.50;99.90;;;;;;5061133;28;20036;-71
2023/04/25 05:47:30;;;;;;;15.82;4.60;;;4.50;99.90;;;;;;5062330;28;20054;-70
2023/04/25 05:49:56;;;;;;;11.85;4.00;;;4.50;99.90;;;;;;5063522;28;20048;-71
2023/04/25 05:52:21;;;;;;;17.83;5.35;;;4.50;99.90;;;;;;5060494;28;20040;-70
2023/04/25 05:54:47;;;;;;;19.95;5.40;;;4.50;99.90;;;;;;5062228;28;20079;-70
2023/04/25 05:57:26;;;;;;;20.50;4.88;;;4.50;99.90;;;;;;5064680;28;20040;-69
2023/04/25 05:59:52;;;;;;;19.58;5.15;;;4.50;99.90;;;;;;5058131;28;20048;-69
2023/04/25 06:02:22;;;;;;;15.10;4.90;;;4.60;99.90;;;;;;5060664;28;20119;-70
2023/04/25 06:04:51;;;;;;;24.58;5.07;;;4.60;99.90;;;;;;5064380;28;20124;-70
2023/04/25 06:07:17;;;;;;;20.73;5.05;;;4.60;99.90;;;;;;5064092;28;20496;-70
2023/04/25 06:09:43;;;;;;;17.92;4.70;;;4.60;99.90;;;;;;5064162;28;20145;-70
2023/04/25 06:12:09;;;;;;;19.50;5.40;;;4.70;99.90;;;;;;5061153;28;20102;-70
2023/04/25 06:14:35;;;;;;;15.10;4.80;;;4.70;99.90;;;;;;5059350;28;20040;-69
2023/04/25 06:17:06;;;;;;;18.30;4.72;;;4.60;99.90;;;;;;5062571;28;20048;-70
2023/04/25 06:19:33;;;;;;;15.63;4.72;;;4.60;99.90;;;;;;5059748;28;20040;-70
2023/04/25 06:21:58;;;;;;;22.70;5.53;;;4.60;99.90;;;;;;5062321;28;20064;-71
2023/04/25 06:24:24;;;;;;;21.70;4.88;;;4.60;99.90;;;;;;5064329;28;20068;-69
2023/04/25 06:26:49;;;;;;;17.83;4.60;;;4.60;99.90;;;;;;5064139;28;20029;-70
2023/04/25 06:29:15;;;;;;;19.63;4.68;;;4.60;99.90;;;;;;5072378;28;20106;-69
2023/04/25 06:31:41;;;;;;;24.42;4.93;;;4.60;99.90;;;;;;5060658;28;20036;-70
2023/04/25 06:34:07;;;;;;;;;;;4.70;99.90;;;;;;5063336;28;20597;-70
2023/04/25 06:36:32;;;;;;;29.42;5.38;;;4.80;99.90;;;;;;5061189;28;19920;-69
2023/04/25 06:38:58;;;;;;;17.25;4.35;;;4.80;99.90;;;;;;5053480;28;20040;-70
2023/04/25 06:41:23;;;;;;;16.45;4.18;;;4.80;99.90;;;;;;5062679;28;20044;-71
2023/04/25 06:43:49;;;;;;;18.30;4.63;;;4.80;99.90;;;;;;5064178;28;20068;-70
2023/04/25 06:46:14;;;;;;;23.20;5.15;;;4.80;99.90;;;;;;5064017;28;20044;-70
2023/04/25 06:48:40;;;;;;;12.88;4.15;;;4.90;99.90;;;;;;5062663;28;20078;-70
2023/04/25 06:51:06;;;;;;;23.85;5.38;;;4.90;99.90;;;;;;5060121;28;20185;-70
2023/04/25 06:53:31;;;;;;;25.85;5.60;;;4.90;99.90;;;;;;5060053;28;20044;-70
2023/04/25 06:55:57;;;;;;;23.75;5.22;;;4.90;99.90;;;;;;5064054;28;20040;-70
2023/04/25 06:58:22;;;;;;;;;;;5.00;99.90;;;;;;5056049;28;20044;-71
2023/04/25 07:00:48;;;;;;;26.95;5.00;;;5.10;99.90;;;;;;5059529;28;20488;-70
2023/04/25 07:03:14;;;;;;;24.48;6.25;;;5.00;99.90;;;;;;5062293;28;20500;-70
2023/04/25 07:05:40;;;;;;;19.65;4.90;;;5.00;99.90;;;;;;5061300;28;20040;-70
2023/04/25 07:08:06;;;;;;;24.23;6.18;;;5.00;99.90;;;;;;5064772;28;20037;-69
2023/04/25 07:10:31;;;;;;;22.58;6.20;;;5.10;99.90;;;;;;5068247;28;20032;-70
2023/04/25 07:12:57;;;;;;;18.02;5.13;;;5.30;99.90;;;;;;5061545;28;20039;-70
2023/04/25 07:15:23;;;;;;;14.80;5.60;;;5.30;99.90;;;;;;5062274;28;20067;-70
2023/04/25 07:17:48;;;;;;;14.15;4.72;;;5.30;99.90;;;;;;5059599;28;20076;-70
2023/04/25 07:20:14;;;;;;;22.35;5.38;;;5.30;99.90;;;;;;5058254;28;20039;-70
2023/04/25 07:22:40;;;;;;;17.50;4.70;;;5.40;99.90;;;;;;5049235;28;20155;-69
2023/04/25 07:25:06;;;;;;;24.60;5.10;;;5.50;99.90;;;;;;5058875;28;20508;-69
2023/04/25 07:27:31;;;;;;;20.33;5.28;;;5.40;99.90;;;;;;5061608;28;20036;-69
2023/04/25 07:29:57;;;;;;;27.50;5.68;;;5.30;99.90;;;;;;5067627;28;20041;-70
2023/04/25 07:32:23;;;;;;;24.13;4.60;;;5.20;99.90;;;;;;5066374;28;20416;-70
2023/04/25 07:34:49;;;;;;;18.55;4.88;;;5.20;99.90;;;;;;5065815;28;20102;-70
2023/04/25 07:37:15;;;;;;;;;;;5.20;99.90;;;;;;5065469;28;20040;-70
2023/04/25 07:39:40;;;;;;;22.52;4.50;;;5.20;99.90;;;;;;5065219;28;19970;-70
2023/04/25 07:42:07;;;;;;;20.77;4.57;;;5.10;99.90;;;;;;5064781;28;20054;-70
2023/04/25 07:44:38;;;;;;;18.50;4.90;;;5.20;99.90;;;;;;5066360;28;20039;-71
2023/04/25 07:47:07;;;;;;;16.30;3.90;;;5.30;99.90;;;;;;5066947;28;20052;-71
2023/04/25 07:49:34;;;;;;;21.25;4.20;;;5.40;99.90;;;;;;5067271;28;20036;-71
2023/04/25 07:52:01;;;;;;;23.45;6.75;;;5.40;99.90;;;;;;5063542;28;20044;-71
2023/04/25 07:54:27;;;;;;;21.00;4.43;;;5.40;99.90;;;;;;5063170;28;20051;-71
2023/04/25 07:56:53;;;;;;;20.00;4.32;;;5.50;99.90;;;;;;5065771;28;20036;-71
2023/04/25 07:59:19;;;;;;;22.38;4.70;;;5.40;99.90;;;;;;5065505;28;20086;-71
2023/04/25 08:01:44;;;;;;;14.98;4.38;;;5.40;99.90;;;;;;5062430;28;20142;-70
2023/04/25 08:04:10;;;;;;;;;;;5.50;99.90;;;;;;5064998;28;20044;-71
2023/04/25 08:06:36;;;;;;;19.48;4.22;;;5.50;99.90;;;;;;5065526;28;19998;-69
2023/04/25 08:09:02;;;;;;;24.38;5.05;;;5.50;99.90;;;;;;5066174;28;20041;-72
2023/04/25 08:11:28;;;;;;;23.58;4.47;;;5.30;99.90;;;;;;5063184;28;20048;-72
2023/04/25 08:13:54;;;;;;;19.52;4.82;;;5.30;99.90;;;;;;5094194;28;20040;-71
2023/04/25 08:16:20;;;;;;;16.45;4.30;;;5.30;99.90;;;;;;5065834;28;20401;-71
2023/04/25 08:18:45;;;;;;;12.50;3.40;;;5.30;99.90;;;;;;5064691;28;20032;-71
2023/04/25 08:21:12;;;;;;;12.70;3.50;;;5.30;99.90;;;;;;5065038;28;20052;-69
2023/04/25 08:23:38;;;;;;;20.40;4.25;;;5.30;99.90;;;;;;5061815;28;20099;-71
2023/04/25 08:26:04;;;;;;;15.05;4.32;;;5.30;99.90;;;;;;5063757;28;20048;-70
2023/04/25 08:28:30;;;;;;;17.08;4.25;;;5.40;99.90;;;;;;5065703;28;20406;-72
2023/04/25 08:30:56;;;;;;;15.25;3.78;;;5.40;99.90;;;;;;5064613;28;20032;-71
2023/04/25 08:33:22;;;;;;;27.73;5.05;;;5.40;99.90;;;;;;5065802;28;20492;-69
2023/04/25 08:35:47;;;;;;;19.08;5.30;;;5.40;99.90;;;;;;5066089;28;20528;-72
2023/04/25 08:38:13;;;;;;;;;;;5.60;99.90;;;;;;5065525;28;20045;-72
2023/04/25 08:40:40;;;;;;;22.83;4.85;;;6.20;99.90;;;;;;5061466;28;19927;-71
2023/04/25 08:43:11;;;;;;;16.25;5.43;;;7.00;99.90;;;;;;5043531;28;20128;-70
2023/04/25 08:45:42;;;;;;;18.92;4.88;;;7.20;99.90;;;;;;5060644;28;20068;-71
2023/04/25 08:48:12;;;;;;;26.20;6.22;;;7.30;99.90;;;;;;5066239;28;20044;-72
2023/04/25 08:50:52;;;;;;;21.10;4.75;;;7.20;99.90;;;;;;5063367;28;20558;-70
2023/04/25 08:53:27;;;;;;;18.67;4.30;;;7.30;99.90;;;;;;5060104;28;20036;-69
2023/04/25 08:55:55;;;;;;;15.52;4.05;;;7.20;99.90;;;;;;5062381;28;20047;-72
2023/04/25 08:58:22;;;;;;;16.50;3.30;;;7.10;99.90;;;;;;5063154;28;20125;-72
2023/04/25 09:00:49;;;;;;;23.70;3.70;;;7.00;99.90;;;;;;5062195;28;20041;-69
2023/04/25 09:03:15;;;;;;;13.15;3.08;;;7.00;99.90;;;;;;5064907;28;20043;-69
2023/04/25 09:05:41;;;;;;;21.92;4.25;;;6.90;99.90;;;;;;5064425;28;20128;-72
2023/04/25 09:08:07;;;;;;;;;;;6.90;99.90;;;;;;5065969;28;20682;-69
2023/04/25 09:10:33;;;;;;;14.68;2.83;;;7.00;99.90;;;;;;5063988;28;20003;-70
2023/04/25 09:13:14;;;;;;;19.55;3.72;;;6.90;99.90;;;;;;5065528;28;20044;-71
2023/04/25 09:15:48;;;;;;;10.88;2.78;;;6.90;99.90;;;;;;5065967;28;20044;-72
2023/04/25 09:18:23;;;;;;;23.35;3.17;;;6.90;99.90;;;;;;5065551;28;20040;-72
2023/04/25 09:20:48;;;;;;;18.80;3.55;;;6.80;99.90;;;;;;5062285;28;20044;-71
2023/04/25 09:23:14;;;;;;;;;;;6.60;99.90;;;;;;5063775;28;20100;-70
2023/04/25 09:25:40;;;;;;;11.40;2.67;;;6.50;99.90;;;;;;5064660;28;19916;-70
2023/04/25 09:28:06;;;;;;;16.77;3.40;;;6.60;99.90;;;;;;5062323;28;20102;-71
2023/04/25 09:30:34;;;;;;;10.55;3.00;;;6.80;99.90;;;;;;5059614;28;20048;-71
2023/04/25 09:33:07;;;;;;;19.90;2.78;;;6.90;99.90;;;;;;5064884;28;20036;-70
2023/04/25 09:35:41;;;;;;;16.05;3.63;;;7.10;99.90;;;;;;5064646;28;20044;-69
2023/04/25 09:38:18;;;;;;;13.52;2.97;;;7.40;99.90;;;;;;5064974;28;20496;-71
2023/04/25 09:40:45;;;;;;;17.75;3.40;;;7.60;99.90;;;;;;5064014;28;20097;-72
2023/04/25 09:43:22;;;;;;;10.48;3.42;;;7.70;99.90;;;;;;5062142;28;20519;-71
2023/04/25 09:45:49;;;;;;;15.63;3.30;;;7.60;99.90;;;;;;5060204;28;20564;-72
2023/04/25 09:48:21;;;;;;;19.92;3.08;;;7.80;99.90;;;;;;5061507;28;20055;-72
2023/04/25 09:51:16;;;;;;;15.00;2.72;;;8.00;99.90;;;;;;5056292;28;20040;-72
2023/04/25 09:53:44;;;;;;;16.80;3.95;;;8.40;99.90;;;;;;5063731;28;20071;-70
2023/04/25 09:56:11;;;;;;;13.55;2.95;;;8.50;99.90;;;;;;5064227;28;20044;-71
2023/04/25 09:58:38;;;;;;;16.23;3.58;;;8.30;99.90;;;;;;5063542;28;20098;-73
2023/04/25 10:01:09;;;;;;;6.43;2.45;;;8.60;99.90;;;;;;5063852;28;20899;-74
2023/04/25 10:03:39;;;;;;;7.63;2.33;;;8.90;99.90;;;;;;5065152;28;20454;-71
2023/04/25 10:06:09;;;;;;;12.07;2.80;;;9.00;99.90;;;;;;5063885;28;20040;-71
2023/04/25 10:08:36;;;;;;;7.95;2.10;;;8.40;99.90;;;;;;5062738;28;20046;-71
2023/04/25 10:11:07;;;;;;;8.30;2.15;;;8.00;99.90;;;;;;5062472;28;20071;-71
2023/04/25 10:13:34;;;;;;;10.35;2.40;;;8.10;99.90;;;;;;5061791;28;20098;-71
2023/04/25 10:16:02;;;;;;;8.55;2.33;;;8.50;99.90;;;;;;5062814;28;20052;-70
2023/04/25 10:18:29;;;;;;;12.18;2.78;;;8.80;99.90;;;;;;5063346;28;20044;-71
2023/04/25 10:20:56;;;;;;;13.23;2.38;;;9.00;99.90;;;;;;5062642;28;20083;-72
2023/04/25 10:23:23;;;;;;;8.32;2.10;;;9.00;99.90;;;;;;5063139;28;20055;-72
2023/04/25 10:25:51;;;;;;;6.18;2.15;;;9.00;99.90;;;;;;5063491;28;20067;-69
2023/04/25 10:28:17;;;;;;;11.50;2.40;;;8.70;99.90;;;;;;5064425;28;20045;-70
2023/04/25 10:30:58;;;;;;;;;;;8.20;99.40;;;;;;5053956;28;20032;-71
2023/04/25 10:33:35;;;;;;;12.25;2.55;;;8.00;99.90;;;;;;5059322;28;19917;-70
2023/04/25 10:36:14;;;;;;;11.35;2.20;;;7.50;99.70;;;;;;5056013;28;20044;-71
2023/04/25 10:38:42;;;;;;;8.82;2.10;;;7.20;99.90;;;;;;5063400;28;20067;-71
2023/04/25 10:41:11;;;;;;;10.18;2.00;;;7.10;99.90;;;;;;5053095;28;20036;-70
2023/04/25 10:43:37;;;;;;;9.45;2.05;;;6.90;99.90;;;;;;5052966;28;20044;-70
2023/04/25 10:46:13;;;;;;;11.85;2.40;;;7.00;99.90;;;;;;5063797;28;20044;-71
2023/04/25 10:48:50;;;;;;;22.23;3.30;;;7.30;99.90;;;;;;5062210;28;20049;-71
2023/04/25 10:51:28;;;;;;;9.70;2.30;;;7.30;99.90;;;;;;5061555;28;20044;-70
2023/04/25 10:54:04;;;;;;;8.77;2.38;;;7.40;99.90;;;;;;5058765;28;20123;-70
2023/04/25 10:56:36;;;;;;;;;;;7.60;99.90;;;;;;5059905;28;20067;-71
2023/04/25 10:59:05;;;;;;;10.85;2.03;;;8.00;99.90;;;;;;5057027;28;19956;-70
2023/04/25 11:01:36;;;;;;;10.80;2.25;;;7.90;99.90;;;;;;5058560;28;20567;-70
2023/04/25 11:04:02;;;;;;;16.77;3.20;;;7.60;99.30;;;;;;5063352;28;20094;-70
2023/04/25 11:06:37;;;;;;;;;;;7.50;99.90;;;;;;5063505;28;20044;-71
2023/04/25 11:09:10;;;;;;;10.85;2.38;;;7.60;99.90;;;;;;5062740;28;19980;-70
2023/04/25 11:11:37;;;;;;;9.10;2.08;;;;;;;;;;5061242;28;21118;-71
2023/04/25 11:14:03;;;;;;;8.57;2.22;;;;;;;;;;5060622;28;20048;-71
2023/04/25 11:16:30;;;;;;;;;;;;;;;;;;5060646;28;20131;-71
2023/04/25 11:18:58;;;;;;;15.48;2.67;;;;;;;;;;5064641;28;20249;-71
2023/04/25 11:21:27;;;;;;;12.20;2.50;;;;;;;;;;5062631;28;20041;-71
2023/04/25 11:23:54;;;;;;;13.10;2.67;;;;;;;;;;5064043;28;20049;-71
2023/04/25 11:26:20;;;;;;;10.00;2.80;;;;;;;;;;5063286;28;20500;-71
2023/04/25 11:28:46;;;;;;;11.45;2.58;;;;;;;;;;5062334;28;20436;-73
2023/04/25 11:31:13;;;;;;;8.38;2.30;;;;;;;;;;5059921;28;20063;-73
2023/04/25 11:33:40;;;;;;;9.98;1.83;;;;;;;;;;5061343;28;20102;-71
2023/04/25 11:36:06;;;;;;;9.90;2.25;;;;;;;;;;5062829;28;20040;-71
2023/04/25 11:38:33;;;;;;;8.95;2.65;;;;;;;;;;5056198;28;20091;-72
2023/04/25 11:40:59;;;;;;;7.03;2.40;;;;;;;;;;5063350;28;20142;-73
2023/04/25 11:43:26;;;;;;;6.40;2.53;;;;;;;;;;5050566;28;20065;-71
2023/04/25 11:45:52;;;;;;;9.25;2.17;;;;;;;;;;5059489;28;20036;-70
2023/04/25 11:48:21;;;;;;;9.20;2.25;;;;;;;;;;5061912;28;20028;-69
2023/04/25 11:50:47;;;;;;;12.38;2.00;;;;;;;;;;5054724;28;20607;-68
2023/04/25 11:53:13;;;;;;;8.57;1.75;;;;;;;;;;5057564;28;20055;-70
2023/04/25 11:55:39;;;;;;;6.68;1.90;;;;;;;;;;5055445;28;20123;-72
2023/04/25 11:58:06;;;;;;;9.90;1.83;;;;;;;;;;5054571;28;20039;-71
2023/04/25 12:00:32;;;;;;;11.90;2.08;;;;;;;;;;5058023;28;20049;-71
2023/04/25 12:02:59;;;;;;;11.55;2.28;;;;;;;;;;5049198;28;20098;-71
2023/04/25 12:05:26;;;;;;;8.00;2.05;;;;;;;;;;5058733;28;20048;-70
2023/04/25 12:07:53;;;;;;;8.55;2.03;;;;;;;;;;5063014;28;20043;-71
2023/04/25 12:10:19;;;;;;;8.20;1.92;;;;;;;;;;5070138;28;20040;-70
2023/04/25 12:12:46;;;;;;;8.20;1.65;;;;;;;;;;5059017;28;20033;-69
2023/04/25 12:15:15;;;;;;;4.13;1.77;;;;;;;;;;5057586;28;20040;-69
2023/04/25 12:17:41;;;;;;;9.60;3.28;;;;;;;;;;5066447;28;20120;-69
2023/04/25 12:20:09;;;;;;;10.95;1.45;;;;;;;;;;5066990;28;20198;-69
2023/04/25 12:22:36;;;;;;;5.35;1.70;;;;;;;;;;5064966;28;20119;-69
2023/04/25 12:25:04;;;;;;;11.40;2.67;;;;;;;;;;5079764;28;20128;-69
2023/04/25 12:27:31;;;;;;;7.68;2.38;;;;;;;;;;5065188;28;20582;-69
2023/04/25 12:29:58;;;;;;;11.02;2.33;;;;;;;;;;5066472;28;20036;-67
2023/04/25 12:32:26;;;;;;;7.70;2.13;;;;;;;;;;5064269;28;20037;-67
2023/04/25 12:34:52;;;;;;;10.63;2.38;;;;;;;;;;5063414;28;20052;-67
2023/04/25 12:37:18;;;;;;;11.90;2.47;;;;;;;;;;5071092;28;20052;-67
2023/04/25 12:39:44;;;;;;;5.85;1.60;;;;;;;;;;5076448;28;20119;-68
2023/04/25 12:42:13;;;;;;;12.32;2.78;;;;;;;;;;5064006;28;20043;-68
2023/04/25 12:44:40;;;;;;;4.28;1.88;;;;;;;;;;5066526;28;20052;-68
2023/04/25 12:47:06;;;;;;;11.57;2.20;;;;;;;;;;5064961;28;20690;-67
2023/04/25 12:49:32;;;;;;;8.63;2.22;;;;;;;;;;5063419;28;20074;-67
2023/04/25 12:51:59;;;;;;;8.77;2.05;;;;;;;;;;5063410;28;20032;-67
2023/04/25 12:54:25;;;;;;;10.32;2.38;;;;;;;;;;5064845;28;20543;-68
2023/04/25 12:56:52;;;;;;;12.10;2.30;;;;;;;;;;5059798;28;20959;-67
2023/04/25 12:59:19;;;;;;;8.57;2.17;;;;;;;;;;5069565;28;20052;-68
2023/04/25 13:01:46;;;;;;;10.35;2.50;;;;;;;;;;5064854;28;20492;-67
2023/04/25 13:04:12;;;;;;;7.32;2.47;;;;;;;;;;5066450;28;20040;-67
2023/04/25 13:06:38;;;;;;;11.88;2.17;;;;;;;;;;5067483;28;20066;-67